Time;durP1;ratioP1;P1;durP2;ratioP2;P2;SDS_P1;SDS_P2;PMS_P1;PMS_P2;Temp;Humidity;BMP_temperature;BMP_pressure;BME280_temperature;BME280_humidity;BME280_pressure;Samples;Min_cycle;Max_cycle;Signal;HPM_P1;HPM_P2
2023/02/14 00:02:04;;;;;;;18.92;11.40;;;2.50;99.90;;;;;;5001001;28;20041;-75
2023/02/14 00:04:30;;;;;;;25.33;13.50;;;2.50;99.90;;;;;;5012199;28;20053;-75
2023/02/14 00:06:56;;;;;;;22.58;12.52;;;2.50;99.90;;;;;;5025462;28;20355;-74
2023/02/14 00:09:22;;;;;;;24.75;14.20;;;2.20;99.90;;;;;;5027653;28;20366;-75
2023/02/14 00:11:47;;;;;;;20.38;11.98;;;2.30;99.90;;;;;;5026733;28;20045;-75
2023/02/14 00:16:57;;;;;;;21.70;12.02;;;2.40;99.90;;;;;;5025668;28;20045;-73
2023/02/14 00:19:23;;;;;;;18.92;10.90;;;2.50;99.90;;;;;;5023445;28;20500;-74
2023/02/14 00:21:49;;;;;;;21.95;12.50;;;2.40;99.90;;;;;;5007617;28;20427;-74
2023/02/14 00:24:23;;;;;;;24.67;13.27;;;2.30;99.90;;;;;;5023593;28;20121;-74
2023/02/14 00:26:49;;;;;;;27.52;16.60;;;2.30;99.90;;;;;;5024115;28;20041;-74
2023/02/14 00:29:19;;;;;;;46.60;27.92;;;2.30;99.90;;;;;;5023400;28;20107;-74
2023/02/14 00:31:48;;;;;;;24.75;13.80;;;2.30;99.90;;;;;;5031224;28;20107;-74
2023/02/14 00:34:15;;;;;;;20.63;12.25;;;2.40;99.90;;;;;;5027317;28;20080;-74
2023/02/14 00:36:41;;;;;;;18.48;10.73;;;2.50;99.90;;;;;;5026786;28;20049;-74
2023/02/14 00:39:09;;;;;;;23.15;11.70;;;2.60;99.90;;;;;;5026126;28;20107;-74
2023/02/14 00:41:35;;;;;;;21.40;12.15;;;2.50;99.90;;;;;;5023205;28;20048;-74
2023/02/14 00:44:01;;;;;;;18.90;10.98;;;2.40;99.90;;;;;;5041707;28;20046;-75
2023/02/14 00:46:27;;;;;;;18.70;10.80;;;2.50;99.90;;;;;;5008998;28;20064;-74
2023/02/14 00:48:52;;;;;;;21.05;11.32;;;2.50;99.90;;;;;;5010279;28;20045;-74
2023/02/14 00:51:18;;;;;;;19.35;10.90;;;2.60;99.90;;;;;;5024802;28;20477;-74
2023/02/14 00:53:45;;;;;;;19.48;11.60;;;2.60;99.90;;;;;;5018982;28;20100;-74
2023/02/14 00:56:11;;;;;;;18.15;9.98;;;2.50;99.90;;;;;;5021081;28;20050;-74
2023/02/14 00:58:37;;;;;;;18.30;11.23;;;2.40;99.90;;;;;;5039738;28;20046;-74
2023/02/14 01:01:04;;;;;;;17.67;9.77;;;2.50;99.90;;;;;;5039260;28;20071;-75
2023/02/14 01:03:30;;;;;;;20.67;10.93;;;2.50;99.90;;;;;;5021539;28;20053;-74
2023/02/14 01:05:56;;;;;;;19.90;11.13;;;2.50;99.90;;;;;;5028385;28;20058;-74
2023/02/14 01:08:24;;;;;;;19.48;10.98;;;2.60;99.90;;;;;;4990188;28;20120;-74
2023/02/14 01:10:50;;;;;;;19.75;11.02;;;2.60;99.90;;;;;;5022058;28;20042;-73
2023/02/14 01:13:16;;;;;;;19.38;10.68;;;2.40;99.90;;;;;;5024573;28;20051;-74
2023/02/14 01:15:43;;;;;;;20.90;11.38;;;2.50;99.90;;;;;;5024995;28;20061;-74
2023/02/14 01:18:09;;;;;;;17.53;10.10;;;2.40;99.90;;;;;;5027652;28;20048;-74
2023/02/14 01:20:35;;;;;;;21.83;12.13;;;2.40;99.90;;;;;;4991303;28;20296;-74
2023/02/14 01:23:01;;;;;;;16.73;9.95;;;2.40;99.90;;;;;;5041495;28;20088;-74
2023/02/14 01:25:27;;;;;;;21.23;11.48;;;2.40;99.90;;;;;;5028268;28;20053;-74
2023/02/14 01:27:52;;;;;;;20.40;11.63;;;2.40;99.90;;;;;;5046016;28;20046;-74
2023/02/14 01:30:18;;;;;;;22.40;11.85;;;2.30;99.90;;;;;;5013589;28;20052;-74
2023/02/14 01:32:44;;;;;;;18.52;10.15;;;2.40;99.90;;;;;;5013003;28;20455;-74
2023/02/14 01:35:10;;;;;;;20.38;11.02;;;2.50;99.90;;;;;;5020134;28;20478;-74
2023/02/14 01:37:36;;;;;;;19.10;10.98;;;2.60;99.90;;;;;;5003898;28;20045;-74
2023/02/14 01:40:03;;;;;;;20.92;10.45;;;2.50;99.90;;;;;;5029978;28;20117;-74
2023/02/14 01:42:28;;;;;;;20.42;11.05;;;2.30;99.90;;;;;;5014842;28;20088;-74
2023/02/14 01:45:00;;;;;;;19.63;10.88;;;2.30;99.90;;;;;;5024082;28;20077;-74
2023/02/14 01:47:27;;;;;;;19.42;10.45;;;2.40;99.90;;;;;;5022939;28;20045;-74
2023/02/14 01:49:55;;;;;;;19.48;11.00;;;2.50;99.90;;;;;;5025341;28;20079;-74
2023/02/14 01:52:30;;;;;;;19.73;10.68;;;2.50;99.90;;;;;;4995550;28;20382;-74
2023/02/14 01:55:20;;;;;;;19.65;11.50;;;2.50;99.90;;;;;;4983597;28;20374;-74
2023/02/14 01:58:07;;;;;;;27.10;12.40;;;2.40;99.90;;;;;;5001011;28;20736;-74
2023/02/14 02:03:18;;;;;;;19.85;10.15;;;2.20;99.90;;;;;;5030574;28;20081;-75
2023/02/14 02:05:48;;;;;;;19.35;10.77;;;2.20;99.90;;;;;;4999798;28;20484;-74
2023/02/14 02:08:14;;;;;;;21.50;11.43;;;2.20;99.90;;;;;;5003203;28;20095;-74
2023/02/14 02:10:40;;;;;;;23.00;12.25;;;2.40;99.90;;;;;;5043429;28;20041;-74
2023/02/14 02:13:07;;;;;;;22.23;12.57;;;2.30;99.90;;;;;;5030989;28;20107;-74
2023/02/14 02:15:49;;;;;;;24.42;12.10;;;2.20;99.90;;;;;;5009839;28;20057;-74
2023/02/14 02:18:22;;;;;;;22.70;12.63;;;2.20;99.90;;;;;;5027019;28;20125;-74
2023/02/14 02:21:00;;;;;;;20.73;11.18;;;2.20;99.90;;;;;;5003755;28;20057;-74
2023/02/14 02:23:37;;;;;;;21.73;12.70;;;2.10;99.90;;;;;;5025497;28;20056;-74
2023/02/14 02:26:08;;;;;;;24.27;13.40;;;2.10;99.90;;;;;;5032419;28;20049;-74
2023/02/14 02:28:46;;;;;;;21.63;11.57;;;2.10;99.90;;;;;;5025318;28;20672;-74
2023/02/14 02:31:41;;;;;;;23.90;12.23;;;2.20;99.90;;;;;;5028578;28;20549;-74
2023/02/14 02:34:32;;;;;;;25.02;13.60;;;2.30;99.90;;;;;;5019475;28;20053;-74
2023/02/14 02:37:26;;;;;;;24.58;12.48;;;2.00;99.90;;;;;;5040985;28;20168;-74
2023/02/14 02:39:52;;;;;;;22.25;11.85;;;2.00;99.90;;;;;;5023594;28;20045;-74
2023/02/14 02:42:54;;;;;;;22.83;11.77;;;2.10;99.90;;;;;;5012779;28;20456;-73
2023/02/14 02:45:20;;;;;;;22.05;12.13;;;2.00;99.90;;;;;;5031253;28;20067;-73
2023/02/14 02:47:48;;;;;;;21.23;11.57;;;2.10;99.90;;;;;;5023970;28;20546;-73
2023/02/14 02:53:47;;;;;;;24.02;11.93;;;2.10;99.90;;;;;;5029423;28;20124;-73
2023/02/14 02:56:46;;;;;;;22.05;12.18;;;2.10;99.90;;;;;;5022781;28;20041;-74
2023/02/14 02:59:20;;;;;;;21.88;12.75;;;2.00;99.90;;;;;;5033853;28;20042;-73
2023/02/14 03:01:54;;;;;;;19.88;11.25;;;2.10;99.90;;;;;;5053490;28;20176;-73
2023/02/14 03:07:33;;;;;;;23.77;13.50;;;2.00;99.90;;;;;;5012952;28;20186;-73
2023/02/14 03:09:52;;;;;;;21.73;11.70;;;1.90;99.90;;;;;;5045839;28;20800;-73
2023/02/14 03:12:33;;;;;;;22.50;12.07;;;1.90;99.90;;;;;;5031515;28;20046;-73
2023/02/14 03:15:07;;;;;;;26.67;13.68;;;1.70;99.90;;;;;;5033773;28;20140;-72
2023/02/14 03:17:47;;;;;;;24.17;13.77;;;1.80;99.90;;;;;;5011137;28;20072;-72
2023/02/14 03:20:23;;;;;;;20.95;11.40;;;1.80;99.90;;;;;;5028063;28;20049;-73
2023/02/14 03:22:53;;;;;;;23.02;11.80;;;1.80;99.90;;;;;;5000323;28;20045;-73
2023/02/14 03:25:41;;;;;;;22.88;12.48;;;1.70;99.90;;;;;;5016326;28;20042;-73
2023/02/14 03:28:13;;;;;;;20.05;11.45;;;1.50;99.90;;;;;;5015752;28;20042;-73
2023/02/14 03:30:59;;;;;;;26.23;13.02;;;1.60;99.90;;;;;;5022403;28;20041;-73
2023/02/14 03:33:43;;;;;;;23.77;12.77;;;1.60;99.90;;;;;;5009965;28;20562;-73
2023/02/14 03:36:12;;;;;;;26.77;13.73;;;1.70;99.90;;;;;;5026472;28;20049;-73
2023/02/14 03:38:48;;;;;;;26.27;12.80;;;1.70;99.90;;;;;;5037674;28;20056;-73
2023/02/14 03:41:20;;;;;;;21.88;11.30;;;1.60;99.90;;;;;;5033727;28;20076;-73
2023/02/14 03:43:50;;;;;;;24.48;12.73;;;1.60;99.90;;;;;;5017271;28;20068;-73
2023/02/14 03:46:30;;;;;;;27.35;13.48;;;1.50;99.90;;;;;;5004610;28;20057;-73
2023/02/14 03:48:57;;;;;;;20.52;11.43;;;1.50;99.90;;;;;;5009240;28;20052;-73
2023/02/14 03:51:22;;;;;;;20.65;10.35;;;1.40;99.90;;;;;;5019133;28;20041;-74
2023/02/14 03:53:51;;;;;;;19.33;10.98;;;1.50;99.90;;;;;;5021812;28;20046;-73
2023/02/14 03:56:37;;;;;;;20.40;11.30;;;1.50;99.90;;;;;;5012042;28;20144;-73
2023/02/14 03:59:11;;;;;;;18.77;10.00;;;1.40;99.90;;;;;;5030112;28;20037;-73
2023/02/14 04:02:07;;;;;;;21.38;11.25;;;1.40;99.90;;;;;;5012269;28;20383;-73
2023/02/14 04:04:36;;;;;;;19.95;10.95;;;1.40;99.90;;;;;;5040438;28;20049;-73
2023/02/14 04:07:09;;;;;;;;;;;1.30;99.90;;;;;;5027800;28;20095;-74
2023/02/14 04:09:34;;;;;;;22.85;11.57;;;1.20;99.90;;;;;;4998310;28;20319;-74
2023/02/14 04:12:00;;;;;;;22.00;11.23;;;1.30;99.90;;;;;;5026327;28;20400;-73
2023/02/14 04:14:28;;;;;;;25.73;12.65;;;1.40;99.90;;;;;;5004632;28;20062;-74
2023/02/14 04:19:38;;;;;;;23.45;11.60;;;1.10;99.90;;;;;;5019771;28;20055;-74
2023/02/14 04:22:04;;;;;;;23.80;12.35;;;1.30;99.90;;;;;;5011515;28;20124;-73
2023/02/14 04:24:30;;;;;;;21.80;12.05;;;1.20;99.90;;;;;;4992673;28;20080;-73
2023/02/14 04:27:10;;;;;;;21.63;11.02;;;1.20;99.90;;;;;;5022972;28;20038;-73
2023/02/14 04:29:38;;;;;;;25.15;11.18;;;1.10;99.90;;;;;;5026861;28;20041;-73
2023/02/14 04:32:08;;;;;;;22.50;11.00;;;1.20;99.90;;;;;;5030196;28;20037;-73
2023/02/14 04:34:34;;;;;;;23.73;10.98;;;1.20;99.90;;;;;;5003425;28;20553;-73
2023/02/14 04:37:00;;;;;;;22.50;11.27;;;1.20;99.90;;;;;;4989696;28;20065;-73
2023/02/14 04:39:26;;;;;;;23.02;10.52;;;1.00;99.90;;;;;;5025637;28;20045;-73
2023/02/14 04:41:51;;;;;;;24.45;11.20;;;1.10;99.90;;;;;;5032227;28;20042;-73
2023/02/14 04:44:18;;;;;;;19.17;9.90;;;1.20;99.90;;;;;;5023642;28;20042;-73
2023/02/14 04:46:44;;;;;;;19.33;9.65;;;1.00;99.90;;;;;;5037953;28;20041;-73
2023/02/14 04:49:10;;;;;;;19.80;10.20;;;1.00;99.90;;;;;;5008890;28;20059;-73
2023/02/14 04:51:35;;;;;;;23.25;11.90;;;1.10;99.90;;;;;;5003408;28;20451;-73
2023/02/14 04:54:01;;;;;;;22.35;11.65;;;1.10;99.90;;;;;;5024362;28;20045;-73
2023/02/14 04:56:27;;;;;;;23.00;11.90;;;1.10;99.90;;;;;;5038428;28;20073;-73
2023/02/14 04:58:53;;;;;;;21.45;11.05;;;1.10;99.90;;;;;;5046254;28;20482;-73
2023/02/14 05:01:19;;;;;;;22.38;11.57;;;1.00;99.90;;;;;;5011939;28;20128;-73
2023/02/14 05:03:45;;;;;;;24.17;12.77;;;1.10;99.90;;;;;;5011649;28;20129;-73
2023/02/14 05:06:10;;;;;;;24.30;12.43;;;1.00;99.90;;;;;;5027381;28;20054;-73
2023/02/14 05:08:36;;;;;;;27.83;12.98;;;0.90;99.90;;;;;;5019779;28;20050;-73
2023/02/14 05:11:02;;;;;;;22.10;12.02;;;1.00;99.90;;;;;;5008315;28;20115;-72
2023/02/14 05:13:28;;;;;;;31.38;12.32;;;1.10;99.90;;;;;;5025138;28;20046;-72
2023/02/14 05:15:54;;;;;;;150.27;16.10;;;1.00;99.90;;;;;;5021440;28;20116;-72
2023/02/14 05:18:20;;;;;;;50.85;12.02;;;0.80;99.90;;;;;;5025356;28;20541;-72
2023/02/14 05:20:49;;;;;;;158.27;15.68;;;0.90;99.90;;;;;;5023888;28;20060;-72
2023/02/14 05:23:15;;;;;;;219.68;19.27;;;0.90;99.90;;;;;;5010909;28;20585;-72
2023/02/14 05:25:41;;;;;;;131.25;14.95;;;0.70;99.90;;;;;;5020733;28;21024;-73
2023/02/14 05:28:07;;;;;;;105.43;13.63;;;0.70;99.90;;;;;;5030905;28;20077;-72
2023/02/14 05:30:33;;;;;;;136.82;15.95;;;0.60;99.90;;;;;;4997971;28;20077;-72
2023/02/14 05:32:59;;;;;;;60.95;12.98;;;0.60;99.90;;;;;;4994631;28;20045;-72
2023/02/14 05:35:25;;;;;;;195.30;20.05;;;0.60;99.90;;;;;;5019873;28;20069;-72
2023/02/14 05:37:51;;;;;;;106.28;15.15;;;0.50;99.90;;;;;;5039755;28;20052;-72
2023/02/14 05:40:16;;;;;;;111.03;16.80;;;0.50;99.90;;;;;;5021858;28;20054;-72
2023/02/14 05:42:42;;;;;;;88.40;18.65;;;0.50;99.90;;;;;;5007329;28;20050;-72
2023/02/14 05:45:08;;;;;;;113.75;18.42;;;0.50;99.90;;;;;;5025423;28;20045;-73
2023/02/14 05:47:34;;;;;;;195.23;21.40;;;0.60;99.90;;;;;;5013910;28;20437;-72
2023/02/14 05:50:00;;;;;;;81.07;14.65;;;0.50;99.90;;;;;;5031326;28;20049;-73
2023/02/14 05:52:26;;;;;;;70.63;13.40;;;0.50;99.90;;;;;;5016799;28;20499;-73
2023/02/14 05:54:51;;;;;;;139.02;17.67;;;0.60;99.90;;;;;;5028968;28;20486;-72
2023/02/14 05:57:17;;;;;;;68.15;15.57;;;0.50;99.90;;;;;;5033702;28;20115;-73
2023/02/14 05:59:43;;;;;;;49.70;14.45;;;0.70;99.90;;;;;;5027191;28;20147;-73
2023/02/14 06:02:08;;;;;;;164.80;21.63;;;0.70;99.90;;;;;;5005514;28;20425;-73
2023/02/14 06:04:34;;;;;;;76.03;17.27;;;0.70;99.90;;;;;;5019208;28;20042;-72
2023/02/14 06:07:00;;;;;;;46.60;13.25;;;0.80;99.90;;;;;;5021705;28;20077;-72
2023/02/14 06:09:25;;;;;;;161.60;19.02;;;0.80;99.90;;;;;;5030214;28;20387;-72
2023/02/14 06:11:51;;;;;;;56.15;13.88;;;0.80;99.90;;;;;;5018577;28;20147;-71
2023/02/14 06:14:17;;;;;;;44.95;13.68;;;0.80;99.90;;;;;;5017261;28;20064;-72
2023/02/14 06:16:43;;;;;;;65.65;13.63;;;1.00;99.90;;;;;;5037689;28;20059;-72
2023/02/14 06:19:08;;;;;;;44.00;12.82;;;1.10;99.90;;;;;;4995174;28;20069;-72
2023/02/14 06:21:34;;;;;;;113.07;16.40;;;1.20;99.90;;;;;;5003178;28;20132;-72
2023/02/14 06:24:00;;;;;;;94.47;17.45;;;0.90;99.90;;;;;;5033974;28;20045;-72
2023/02/14 06:26:26;;;;;;;144.15;20.10;;;0.80;99.90;;;;;;5020204;28;20054;-72
2023/02/14 06:28:56;;;;;;;94.18;13.95;;;0.90;99.90;;;;;;5022169;28;20125;-73
2023/02/14 06:31:22;;;;;;;92.60;15.23;;;0.70;99.90;;;;;;4982254;28;20071;-74
2023/02/14 06:33:48;;;;;;;211.68;19.10;;;0.90;99.90;;;;;;5012930;28;20454;-73
2023/02/14 06:36:14;;;;;;;87.35;14.60;;;0.70;99.90;;;;;;5022530;28;20107;-73
2023/02/14 06:38:40;;;;;;;101.75;18.13;;;0.80;99.90;;;;;;5009321;28;20073;-73
2023/02/14 06:41:06;;;;;;;85.25;15.55;;;0.80;99.90;;;;;;5009035;28;20077;-73
2023/02/14 06:43:32;;;;;;;58.17;12.60;;;0.70;99.90;;;;;;4998234;28;20099;-73
2023/02/14 06:45:58;;;;;;;61.30;13.23;;;0.70;99.90;;;;;;5012276;28;20049;-73
2023/02/14 06:48:23;;;;;;;117.88;14.80;;;0.60;99.90;;;;;;5033302;28;20399;-73
2023/02/14 06:50:49;;;;;;;130.68;16.30;;;0.60;99.90;;;;;;5008176;28;20046;-72
2023/02/14 06:53:15;;;;;;;159.68;19.50;;;0.70;99.90;;;;;;5021351;28;20045;-73
2023/02/14 06:55:40;;;;;;;159.80;17.58;;;0.70;99.90;;;;;;5017090;28;20052;-72
2023/02/14 06:58:06;;;;;;;145.15;17.95;;;0.60;99.90;;;;;;5021045;28;20045;-73
2023/02/14 07:00:32;;;;;;;95.10;16.40;;;0.60;99.90;;;;;;4999773;28;20429;-73
2023/02/14 07:02:58;;;;;;;82.43;13.70;;;0.70;99.90;;;;;;4990030;28;20053;-72
2023/02/14 07:05:23;;;;;;;137.25;18.30;;;0.70;99.90;;;;;;5012152;28;20655;-73
2023/02/14 07:07:49;;;;;;;109.55;15.50;;;0.60;99.90;;;;;;5012583;28;20470;-73
2023/02/14 07:10:15;;;;;;;126.13;15.05;;;0.60;99.90;;;;;;5006513;28;20056;-73
2023/02/14 07:12:41;;;;;;;28.33;12.10;;;0.70;99.90;;;;;;5029656;28;20355;-73
2023/02/14 07:15:08;;;;;;;40.85;11.13;;;0.80;99.90;;;;;;5025508;28;20139;-73
2023/02/14 07:17:33;;;;;;;63.28;13.45;;;0.90;99.90;;;;;;5009308;28;20046;-72
2023/02/14 07:19:59;;;;;;;46.20;11.23;;;0.70;99.90;;;;;;4993511;28;20379;-73
2023/02/14 07:22:25;;;;;;;73.60;13.90;;;0.90;99.90;;;;;;4995060;28;20057;-73
2023/02/14 07:24:51;;;;;;;127.65;15.70;;;0.80;99.90;;;;;;5016245;28;20053;-73
2023/02/14 07:27:16;;;;;;;48.17;12.75;;;0.70;99.90;;;;;;5039294;28;20750;-72
2023/02/14 07:29:42;;;;;;;93.43;13.75;;;0.70;99.90;;;;;;5012712;28;20049;-74
2023/02/14 07:32:08;;;;;;;122.50;14.60;;;0.70;99.90;;;;;;5014581;28;20045;-73
2023/02/14 07:34:34;;;;;;;70.78;11.00;;;0.80;99.90;;;;;;5038989;28;20538;-73
2023/02/14 07:37:00;;;;;;;28.38;9.93;;;0.80;99.90;;;;;;5017762;28;20042;-73
2023/02/14 07:39:26;;;;;;;31.55;9.80;;;0.90;99.90;;;;;;5016383;28;20498;-73
2023/02/14 07:41:52;;;;;;;29.75;9.75;;;1.00;99.90;;;;;;5026429;28;20069;-73
2023/02/14 07:44:18;;;;;;;113.35;13.98;;;1.00;99.90;;;;;;5010101;28;20120;-73
2023/02/14 07:46:43;;;;;;;33.80;8.73;;;0.80;99.90;;;;;;5021609;28;20351;-73
2023/02/14 07:49:09;;;;;;;59.72;10.77;;;1.10;99.90;;;;;;5016187;28;20041;-73
2023/02/14 07:51:35;;;;;;;58.30;11.35;;;1.10;99.90;;;;;;5039692;28;20080;-72
2023/02/14 07:54:00;;;;;;;22.60;9.15;;;1.10;99.90;;;;;;5015516;28;20110;-72
2023/02/14 07:56:26;;;;;;;71.28;11.10;;;1.00;99.90;;;;;;5059892;28;20045;-72
2023/02/14 07:58:52;;;;;;;97.63;11.48;;;1.20;99.90;;;;;;5021486;28;20064;-73
2023/02/14 08:01:18;;;;;;;17.73;8.25;;;0.90;99.90;;;;;;5004618;28;20045;-73
2023/02/14 08:03:48;;;;;;;71.88;11.48;;;1.10;99.90;;;;;;5014261;28;20513;-74
2023/02/14 08:06:20;;;;;;;23.77;8.93;;;1.20;99.90;;;;;;5025360;28;20049;-73
2023/02/14 08:08:46;;;;;;;28.30;8.85;;;1.30;99.90;;;;;;5021731;28;20045;-73
2023/02/14 08:12:57;;;;;;;15.18;9.07;;;1.30;99.90;;;;;;5030022;28;20041;-74
2023/02/14 08:13:58;;;;;;;33.03;9.02;;;1.40;99.90;;;;;;5021113;28;20058;-73
2023/02/14 08:16:23;;;;;;;29.92;9.18;;;1.40;99.90;;;;;;5028411;28;20038;-74
2023/02/14 08:18:50;;;;;;;51.58;10.35;;;1.40;99.90;;;;;;5008064;28;20050;-74
2023/02/14 08:21:16;;;;;;;47.58;10.05;;;1.30;99.90;;;;;;5034712;28;20331;-75
2023/02/14 08:23:42;;;;;;;48.28;9.77;;;1.30;99.90;;;;;;5008916;28;20047;-74
2023/02/14 08:26:08;;;;;;;24.27;8.20;;;1.30;99.90;;;;;;5029315;28;20106;-74
2023/02/14 08:28:35;;;;;;;18.83;7.68;;;1.40;99.90;;;;;;4999770;28;20049;-75
2023/02/14 08:31:01;;;;;;;32.42;9.45;;;1.50;99.90;;;;;;5032021;28;20037;-75
2023/02/14 08:33:27;;;;;;;106.38;11.98;;;1.60;99.90;;;;;;5015229;28;20046;-75
2023/02/14 08:35:53;;;;;;;76.70;10.90;;;1.60;99.90;;;;;;5027720;28;20623;-74
2023/02/14 08:38:19;;;;;;;52.25;9.85;;;1.40;99.90;;;;;;5014403;28;20045;-74
2023/02/14 08:40:45;;;;;;;56.10;10.68;;;1.50;99.90;;;;;;5053196;28;20053;-75
2023/02/14 08:43:10;;;;;;;42.58;10.13;;;1.30;99.90;;;;;;5024344;28;20053;-77
2023/02/14 08:45:37;;;;;;;17.30;7.82;;;1.40;99.90;;;;;;5015309;28;20108;-74
2023/02/14 08:48:08;;;;;;;27.55;8.48;;;1.60;99.90;;;;;;5024799;28;20057;-75
2023/02/14 08:50:34;;;;;;;13.73;7.55;;;1.60;99.90;;;;;;5003579;28;20051;-75
2023/02/14 08:53:00;;;;;;;18.10;7.80;;;1.80;99.90;;;;;;5059534;28;20056;-75
2023/02/14 08:55:26;;;;;;;19.17;7.13;;;1.70;99.90;;;;;;5014290;28;20068;-75
2023/02/14 08:57:55;;;;;;;74.40;10.60;;;1.80;99.90;;;;;;5009809;28;20042;-74
2023/02/14 09:00:21;;;;;;;64.47;9.85;;;1.50;99.90;;;;;;5012956;28;20056;-74
2023/02/14 09:02:51;;;;;;;21.70;8.13;;;1.40;99.90;;;;;;5021867;28;20073;-76
2023/02/14 09:05:17;;;;;;;53.60;11.23;;;1.70;99.90;;;;;;5018701;28;20057;-78
2023/02/14 09:07:43;;;;;;;45.88;10.85;;;2.00;99.90;;;;;;5027485;28;20099;-77
2023/02/14 09:10:09;;;;;;;26.10;9.65;;;2.20;99.90;;;;;;5039429;28;20523;-78
2023/02/14 09:12:38;;;;;;;141.20;15.05;;;2.50;99.90;;;;;;5009783;28;20038;-77
2023/02/14 09:15:04;;;;;;;34.97;9.85;;;2.40;99.90;;;;;;5014019;28;20354;-77
2023/02/14 09:17:30;;;;;;;15.88;8.75;;;2.50;99.90;;;;;;5034169;28;20052;-77
2023/02/14 09:19:56;;;;;;;18.27;9.40;;;2.30;99.90;;;;;;5024980;28;20069;-76
2023/02/14 09:22:22;;;;;;;33.40;8.77;;;2.60;99.90;;;;;;4998261;28;20042;-77
2023/02/14 09:24:47;;;;;;;75.45;10.95;;;2.60;99.90;;;;;;5015385;28;20140;-77
2023/02/14 09:27:13;;;;;;;26.67;9.43;;;2.80;99.90;;;;;;5028979;28;20120;-77
2023/02/14 09:29:39;;;;;;;42.70;9.95;;;2.90;99.90;;;;;;5026694;28;20038;-77
2023/02/14 09:32:05;;;;;;;31.73;9.43;;;2.90;99.90;;;;;;5007627;28;20069;-77
2023/02/14 09:37:16;;;;;;;17.42;7.60;;;3.10;99.90;;;;;;5028556;28;20359;-76
2023/02/14 09:39:42;;;;;;;17.60;8.77;;;3.50;99.90;;;;;;5031264;28;20771;-76
2023/02/14 09:42:38;;;;;;;20.13;8.52;;;3.40;99.90;;;;;;5008351;28;20056;-75
2023/02/14 09:45:26;;;;;;;57.88;9.70;;;3.70;99.90;;;;;;5040586;28;20049;-76
2023/02/14 09:47:56;;;;;;;75.75;10.23;;;3.30;99.90;;;;;;5042796;28;20045;-76
2023/02/14 09:50:35;;;;;;;57.83;11.02;;;3.30;99.90;;;;;;5008052;28;20038;-76
2023/02/14 09:53:26;;;;;;;21.00;8.07;;;3.30;99.90;;;;;;5008155;28;20462;-75
2023/02/14 09:56:00;;;;;;;17.33;8.50;;;3.60;99.90;;;;;;5018731;28;20045;-75
2023/02/14 09:58:29;;;;;;;180.05;14.88;;;3.60;99.90;;;;;;5023689;28;20103;-74
2023/02/14 10:01:03;;;;;;;25.50;9.55;;;3.60;99.90;;;;;;5029569;28;20075;-74
2023/02/14 10:04:13;;;;;;;12.00;7.82;;;3.60;99.90;;;;;;5022480;28;20041;-74
2023/02/14 10:07:00;;;;;;;12.45;7.95;;;4.00;99.90;;;;;;5029253;28;20053;-74
2023/02/14 10:10:04;;;;;;;29.27;9.17;;;3.90;99.90;;;;;;5026915;28;20064;-73
2023/02/14 10:12:40;;;;;;;19.20;8.55;;;3.90;99.90;;;;;;4989054;28;20285;-73
2023/02/14 10:15:19;;;;;;;13.07;7.90;;;4.00;99.90;;;;;;5027805;28;20057;-73
2023/02/14 10:18:08;;;;;;;11.88;7.78;;;4.20;99.90;;;;;;5028459;28;20551;-74
2023/02/14 10:20:35;;;;;;;12.07;8.05;;;4.00;99.90;;;;;;5024809;28;20054;-75
2023/02/14 10:23:03;;;;;;;14.68;8.52;;;4.00;99.90;;;;;;4994767;28;20042;-75
2023/02/14 10:25:44;;;;;;;15.35;7.97;;;4.10;99.90;;;;;;5024619;28;20053;-75
2023/02/14 10:28:12;;;;;;;21.27;9.93;;;4.30;99.90;;;;;;4985080;28;20041;-75
2023/02/14 10:30:38;;;;;;;14.68;8.65;;;4.30;99.90;;;;;;5029713;28;20050;-74
2023/02/14 10:33:17;;;;;;;22.45;7.82;;;4.20;99.90;;;;;;5021202;28;20347;-74
2023/02/14 10:35:50;;;;;;;21.90;8.88;;;4.50;99.90;;;;;;5026792;28;20474;-74
2023/02/14 10:38:22;;;;;;;29.60;9.88;;;4.60;99.90;;;;;;5023064;28;20486;-74
2023/02/14 10:41:18;;;;;;;14.70;8.75;;;4.70;99.90;;;;;;5020431;28;20451;-74
2023/02/14 10:44:00;;;;;;;22.90;8.75;;;4.80;99.90;;;;;;5028070;28;20382;-74
2023/02/14 10:46:49;;;;;;;10.60;7.75;;;4.70;99.90;;;;;;5039465;28;20049;-74
2023/02/14 10:49:33;;;;;;;12.18;8.30;;;4.70;99.90;;;;;;5042016;28;20161;-75
2023/02/14 10:52:11;;;;;;;11.50;8.20;;;4.80;99.90;;;;;;5028889;28;20053;-73
2023/02/14 10:54:37;;;;;;;;;;;5.00;99.90;;;;;;5022709;28;20065;-75
2023/02/14 10:57:10;;;;;;;12.02;7.80;;;5.20;99.90;;;;;;4992878;28;20000;-76
2023/02/14 10:59:47;;;;;;;15.13;8.18;;;5.40;99.90;;;;;;5030998;28;20085;-74
2023/02/14 11:02:15;;;;;;;20.23;10.00;;;5.40;99.90;;;;;;5008566;28;20689;-74
2023/02/14 11:04:41;;;;;;;11.02;8.05;;;5.40;99.90;;;;;;5033094;28;20045;-74
2023/02/14 11:07:14;;;;;;;13.38;9.32;;;5.40;99.90;;;;;;5025936;28;20055;-75
2023/02/14 11:09:40;;;;;;;12.25;8.68;;;5.70;99.90;;;;;;5010101;28;20038;-74
2023/02/14 11:12:06;;;;;;;12.05;8.18;;;6.00;99.90;;;;;;5022311;28;20103;-74
2023/02/14 11:14:35;;;;;;;12.77;9.35;;;6.30;99.90;;;;;;5032501;28;20069;-74
2023/02/14 11:17:30;;;;;;;10.55;7.65;;;7.10;99.90;;;;;;5006344;28;20073;-74
2023/02/14 11:20:08;;;;;;;10.18;6.47;;;9.50;99.90;;;;;;5022974;28;20046;-73
2023/02/14 11:22:34;;;;;;;8.45;6.20;;;11.90;99.90;;;;;;5020264;28;20053;-74
2023/02/14 11:25:10;;;;;;;9.20;7.00;;;12.50;99.90;;;;;;5028422;28;20600;-75
2023/02/14 11:27:36;;;;;;;8.27;6.50;;;12.00;99.90;;;;;;4993396;28;20045;-77
2023/02/14 11:30:02;;;;;;;8.25;6.47;;;12.70;99.90;;;;;;4991444;28;20049;-77
2023/02/14 11:32:28;;;;;;;8.68;6.32;;;14.10;99.90;;;;;;5038058;28;20052;-78
2023/02/14 11:35:05;;;;;;;7.03;5.80;;;15.10;99.90;;;;;;5021454;28;20129;-77
2023/02/14 11:37:42;;;;;;;7.82;6.32;;;15.50;97.10;;;;;;5048770;28;20041;-78
2023/02/14 11:40:32;;;;;;;7.80;6.40;;;14.90;99.20;;;;;;5028804;28;20053;-77
2023/02/14 11:42:59;;;;;;;8.98;6.20;;;15.00;99.90;;;;;;5002743;28;20053;-77
2023/02/14 11:45:29;;;;;;;7.07;5.22;;;14.50;99.90;;;;;;4986302;28;20045;-77
2023/02/14 11:48:20;;;;;;;6.13;5.25;;;15.00;99.90;;;;;;5013465;28;20064;-77
2023/02/14 11:51:13;;;;;;;7.18;6.38;;;15.50;99.90;;;;;;5042292;28;20045;-75
2023/02/14 11:53:47;;;;;;;6.72;5.55;;;15.60;99.90;;;;;;5024004;28;20128;-74
2023/02/14 11:56:15;;;;;;;6.30;5.57;;;15.90;96.80;;;;;;5021815;28;20073;-74
2023/02/14 11:58:45;;;;;;;8.23;5.43;;;16.40;94.60;;;;;;5003123;28;20111;-74
2023/02/14 12:01:13;;;;;;;7.53;5.90;;;16.50;96.30;;;;;;5009651;28;20051;-74
2023/02/14 12:03:47;;;;;;;8.52;6.82;;;16.30;97.80;;;;;;5039694;28;20061;-74
2023/02/14 12:06:25;;;;;;;9.20;7.10;;;17.80;87.20;;;;;;5020201;28;20057;-74
2023/02/14 12:08:51;;;;;;;5.97;5.28;;;19.50;74.60;;;;;;5044550;28;20452;-75
2023/02/14 12:11:22;;;;;;;8.50;6.22;;;18.70;74.10;;;;;;5045089;28;20646;-75
2023/02/14 12:13:57;;;;;;;7.57;5.70;;;17.70;77.30;;;;;;5024154;28;20078;-75
2023/02/14 12:16:43;;;;;;;7.07;5.40;;;17.20;89.50;;;;;;5022106;28;20370;-76
2023/02/14 12:19:51;;;;;;;7.95;6.13;;;18.50;82.40;;;;;;5012775;28;20045;-75
2023/02/14 12:22:19;;;;;;;7.45;5.50;;;20.20;72.00;;;;;;5028179;28;20069;-75
2023/02/14 12:24:54;;;;;;;6.90;5.90;;;22.20;60.40;;;;;;5016528;28;20052;-75
2023/02/14 12:27:39;;;;;;;7.20;5.50;;;19.70;62.00;;;;;;5026263;28;20049;-76
2023/02/14 12:30:13;;;;;;;6.65;5.68;;;19.60;68.90;;;;;;5041329;28;20048;-77
2023/02/14 12:32:46;;;;;;;6.68;5.25;;;19.30;70.00;;;;;;5028388;28;20077;-75
2023/02/14 12:35:27;;;;;;;6.88;5.30;;;19.20;68.10;;;;;;5009325;28;20202;-75
2023/02/14 12:38:09;;;;;;;7.95;5.93;;;20.10;67.20;;;;;;5015235;28;20046;-75
2023/02/14 12:41:33;;;;;;;5.93;5.32;;;19.80;63.40;;;;;;5020945;28;20049;-77
2023/02/14 12:44:21;;;;;;;5.93;5.32;;;20.60;64.50;;;;;;4966122;28;20097;-75
2023/02/14 12:46:46;;;;;;;7.00;5.78;;;22.20;57.70;;;;;;5028883;28;20156;-75
2023/02/14 12:49:32;;;;;;;6.00;5.40;;;22.00;56.50;;;;;;5031951;28;20050;-75
2023/02/14 12:52:03;;;;;;;6.10;5.35;;;20.90;54.30;;;;;;5006298;28;20084;-75
2023/02/14 12:54:38;;;;;;;7.28;6.20;;;21.00;58.10;;;;;;5026695;28;20041;-74
2023/02/14 12:57:39;;;;;;;10.32;9.52;;;21.20;59.30;;;;;;5019601;28;20046;-75
2023/02/14 13:00:19;;;;;;;9.88;8.88;;;20.90;60.10;;;;;;5018738;28;20812;-77
2023/02/14 13:03:06;;;;;;;17.08;15.98;;;21.00;62.00;;;;;;5023195;28;20055;-75
2023/02/14 13:05:44;;;;;;;14.95;13.95;;;19.30;65.40;;;;;;5016475;28;20518;-76
2023/02/14 13:08:39;;;;;;;11.48;10.48;;;19.30;64.10;;;;;;5006949;28;20053;-76
2023/02/14 13:11:54;;;;;;;15.23;14.15;;;17.80;73.60;;;;;;5017865;28;20194;-76
2023/02/14 13:14:22;;;;;;;14.77;13.73;;;19.70;66.00;;;;;;5002318;28;20060;-74
2023/02/14 13:16:50;;;;;;;8.45;7.75;;;19.30;63.10;;;;;;5026344;28;20076;-76
2023/02/14 13:19:44;;;;;;;5.60;5.00;;;19.70;61.20;;;;;;5014319;28;20056;-76